Agua Caliente, CA

4:31 PM PDT on August 27, 2014 (GMT -0700)
MesoWest Anza Southeast CA US SGXWFO | Change Station
CLOSE
Current Station
Personal Weather Station
Location: Anza, CA
Elevation: 3919 ft
Nearby Weather Stations

Elev 3919 ft 33.51 °N, 116.62 °W | Updated 42 minutes ago

Clear
Clear
89 °F
Feels Like 86 °F
N
12
Wind Variable Wind from West
Gusts 22.0 mph

Today
High -- | Low -- °F
--% Chance of Precip.
Yesterday
High -- | Low -- °F
Precip. -- in
6:17 AM 7:18 PM
Waxing Crescent, 5% visible
Pressure 29.97 in
Visibility 10.0 miles
Clouds Clear
Heat Index 86 °F
Dew Point 49 °F
Humidity 25%
Rainfall -999.00 in
Snow Depth Not available.
UV 6 out of 12
Pollen 6.80 out of 12
Air Quality Not available.
Flu Activity Not available.
METAR KRNM 272253Z 27012KT 10SM CLR 33/09 A3002 RMK AO2 SLP147 T03330089

More Conditions Fewer Conditions

Pressure 29.97 in
Visibility 10.0 miles
Clouds Clear
Heat Index 86 °F
Dew Point 49 °F
Humidity 25%
Rainfall -999.00 in
Snow Depth Not available.
UV 6 out of 12
Pollen 6.80 out of 12
Air Quality Not available.
Flu Activity Not available.
METAR KRNM 272253Z 27012KT 10SM CLR 33/09 A3002 RMK AO2 SLP147 T03330089

More Conditions Fewer Conditions

10-Day Weather Forecast

Almanac

Astronomy

Aug. 27, 2014 Rise Set
Actual Time 6:17 AM PDT 7:18 PM PDT
Civil Twilight 5:52 AM PDT 7:43 PM PDT
Nautical Twilight 5:21 AM PDT 8:13 PM PDT
Astronomical Twilight 4:50 AM PDT 8:44 PM PDT
Moon 8:09 AM PDT 8:22 PM PDT
Length of Visible Light 13h 51m
Length of Day
13h 00m
Tomorrow will be 1m 57s shorter.
Waxing Crescent, 5% of the Moon is Illuminated
Today
Waxing Crescent
Sep 2
First Quarter
Sep 8
Full
Sep 15
Last Quarter
Sep 24
New

Today's Extremes

State Highs State Lows

Community

WunderPhotos

Upload Photos

1,747,816 photos uploaded!

Nearby

Snow Depth

Station Depth Elevation
Leavitt Meadows 0 in 7200 ft
Hagan's Meadow 0 in 8000 ft
Fallen Leaf 0 in 6300 ft
CSS Lab 1 in 6900 ft
Adin Mountain 0 in 6200 ft

Earthquake Activity

City Distance Mag. Time & Date
San Fernando, California 119 miles 2.5 4:57 AM PDT
2014-08-26
Progreso, Mexico 75 miles 2.6 10:55 PM PDT
2014-08-25
Maneadero, Mexico 108 miles 2.8 1:03 PM PDT
2014-08-25
San Pedro, California 96 miles 3.2 7:50 PM PDT
2014-08-24
Minimum magnitude displayed is 2.5.

Coastal Water Temperatures

Place Temperature
No Stations Reporting

Nearby Weather Stations